Time;durP1;ratioP1;P1;durP2;ratioP2;P2;SDS_P1;SDS_P2;PMS_P1;PMS_P2;Temp;Humidity;BMP_temperature;BMP_pressure;BME280_temperature;BME280_humidity;BME280_pressure;Samples;Min_cycle;Max_cycle;Signal;HPM_P1;HPM_P2
2021/05/09 00:01:11;;;;;;;3.25;3.05;;;;;;;11.45;46.24;94997.64;833160;70;31716;-84
2021/05/09 00:16:09;;;;;;;3.50;3.20;;;;;;;11.26;46.32;94998.91;834905;71;30061;-83
2021/05/09 00:31:08;;;;;;;3.58;2.98;;;;;;;11.05;46.17;94993.86;828893;71;29596;-84
2021/05/09 00:46:16;;;;;;;3.47;3.27;;;;;;;10.94;47.08;94987.13;829489;70;32673;-84
2021/05/09 01:01:19;;;;;;;3.45;3.20;;;;;;;10.86;47.90;94991.67;828260;70;32904;-85
2021/05/09 01:16:13;;;;;;;4.08;3.72;;;;;;;10.81;48.04;95003.01;828857;71;31844;-86
2021/05/09 01:31:09;;;;;;;4.53;3.10;;;;;;;10.64;48.89;94995.52;835983;70;29690;-83
2021/05/09 01:46:13;;;;;;;4.37;3.65;;;;;;;10.50;49.21;95008.51;795612;72;32174;-83
2021/05/09 02:01:10;;;;;;;4.30;4.00;;;;;;;10.41;49.33;95011.45;829547;71;29521;-83
2021/05/09 02:16:13;;;;;;;4.30;3.90;;;;;;;10.25;49.95;95018.59;829902;71;32069;-83
2021/05/09 02:31:10;;;;;;;4.83;4.40;;;;;;;10.13;50.76;95018.92;828402;71;29988;-85
2021/05/09 02:46:17;;;;;;;4.40;4.10;;;;;;;9.99;51.19;95028.44;827775;71;32689;-84
2021/05/09 03:01:47;;;;;;;4.58;4.17;;;;;;;9.87;52.81;95045.80;828728;71;32644;-83
2021/05/09 03:16:08;;;;;;;4.72;4.33;;;;;;;9.75;52.53;95057.11;834544;71;29584;-85
2021/05/09 03:31:13;;;;;;;4.12;3.83;;;;;;;10.51;51.26;95059.91;834490;71;32580;-83
2021/05/09 03:46:18;;;;;;;4.28;3.87;;;;;;;12.07;48.09;95073.99;828963;70;32798;-85
2021/05/09 04:01:14;;;;;;;4.53;4.17;;;;;;;13.61;45.71;95090.91;800687;74;32899;-85
2021/05/09 04:16:14;;;;;;;6.05;5.55;;;;;;;14.95;43.10;95100.87;834388;71;32729;-87
2021/05/09 04:31:09;;;;;;;6.75;6.15;;;;;;;15.53;41.50;95101.83;829859;70;30558;-83
2021/05/09 04:46:16;;;;;;;6.33;5.70;;;;;;;16.51;38.46;95119.33;829250;70;32684;-85
2021/05/09 05:01:12;;;;;;;5.25;4.75;;;;;;;17.56;40.19;95133.36;835612;71;29654;-82
2021/05/09 05:16:15;;;;;;;6.92;6.12;;;;;;;16.80;37.80;95130.65;835057;71;32677;-78
2021/05/09 05:31:13;;;;;;;5.30;4.90;;;;;;;18.31;37.28;95137.47;829177;71;32586;-80
2021/05/09 05:46:29;;;;;;;6.15;5.55;;;;;;;18.54;34.84;95156.03;834072;71;32832;-81
2021/05/09 06:01:15;;;;;;;6.20;5.60;;;;;;;19.52;31.63;95161.09;834161;71;33124;-80
2021/05/09 06:16:18;;;;;;;5.33;4.92;;;;;;;19.15;32.33;95165.52;827654;71;33257;-79
2021/05/09 06:31:09;;;;;;;5.90;5.25;;;;;;;20.01;31.68;95159.94;834215;71;29712;-79
2021/05/09 06:46:18;;;;;;;6.20;5.65;;;;;;;20.44;31.39;95172.51;823863;71;32696;-77
2021/05/09 07:01:15;;;;;;;4.50;4.10;;;;;;;21.26;28.75;95180.84;834013;71;33543;-79
2021/05/09 07:16:14;;;;;;;5.20;4.80;;;;;;;22.76;28.01;95178.52;834458;71;32519;-78
2021/05/09 07:31:10;;;;;;;4.55;4.25;;;;;;;22.23;26.26;95180.71;834915;71;30391;-80
2021/05/09 07:46:16;;;;;;;6.10;5.60;;;;;;;21.35;26.60;95184.16;828285;71;33058;-82
2021/05/09 08:01:14;;;;;;;5.00;4.60;;;;;;;22.35;25.51;95181.22;829684;71;30422;-78
2021/05/09 08:16:11;;;;;;;7.28;5.28;;;;;;;23.25;24.67;95167.91;829517;71;29323;-77
2021/05/09 08:31:11;;;;;;;5.45;3.70;;;;;;;22.32;24.48;95172.00;829623;71;29289;-76
2021/05/09 08:46:12;;;;;;;4.43;3.60;;;;;;;23.30;23.23;95166.87;834233;71;29806;-79
2021/05/09 09:01:48;;;;;;;3.80;3.50;;;;;;;23.53;22.96;95159.65;827950;71;32333;-79
2021/05/09 09:16:14;;;;;;;3.13;2.93;;;;;;;22.87;23.32;95153.89;834781;71;31501;-79
2021/05/09 09:31:15;;;;;;;13.38;9.90;;;;;;;21.24;26.53;95144.36;827457;71;31709;-76
2021/05/09 09:46:16;;;;;;;3.58;3.37;;;;;;;21.89;26.52;95134.82;833946;71;29229;-81
2021/05/09 10:01:27;;;;;;;2.70;2.50;;;;;;;21.89;25.87;95133.48;827291;71;32269;-77
2021/05/09 10:16:11;;;;;;;2.90;2.70;;;;;;;23.08;25.05;95114.22;822477;71;29694;-76
2021/05/09 10:31:27;;;;;;;2.70;2.50;;;;;;;22.06;24.92;95112.88;827316;71;32276;-76
2021/05/09 10:46:11;;;;;;;2.80;2.20;;;;;;;22.91;22.94;95097.19;828002;71;29228;-76
2021/05/09 11:01:32;;;;;;;2.40;2.30;;;;;;;21.80;22.49;95075.45;828204;71;31825;-77
2021/05/09 11:16:19;;;;;;;3.53;2.27;;;;;;;22.51;21.54;95068.30;834746;71;29242;-76
2021/05/09 11:31:27;;;;;;;2.33;2.13;;;;;;;22.58;21.33;95055.63;827549;71;31720;-78
2021/05/09 11:46:19;;;;;;;2.20;2.10;;;;;;;22.87;22.23;95034.25;827490;71;32186;-78
2021/05/09 12:01:15;;;;;;;4.60;2.30;;;;;;;22.36;22.19;95029.79;827485;71;31762;-79
2021/05/09 12:16:12;;;;;;;2.10;2.00;;;;;;;21.62;22.77;95008.23;828378;71;30273;-76
2021/05/09 12:31:14;;;;;;;2.77;2.50;;;;;;;21.85;23.99;94989.67;828612;71;30561;-78
2021/05/09 12:46:45;;;;;;;2.62;2.42;;;;;;;20.97;24.03;95020.50;827855;71;33151;-77
2021/05/09 13:01:35;;;;;;;3.35;2.20;;;;;;;20.52;24.39;94986.31;834216;71;32699;-77
2021/05/09 13:16:15;;;;;;;2.00;1.90;;;;;;;20.75;23.80;94991.91;834168;71;32713;-77
2021/05/09 13:31:15;;;;;;;2.27;2.08;;;;;;;20.51;24.70;94972.74;833070;70;32710;-78
2021/05/09 13:46:16;;;;;;;2.90;2.70;;;;;;;19.79;25.11;94973.36;827671;71;33733;-77
2021/05/09 14:01:13;;;;;;;2.77;2.55;;;;;;;19.69;26.33;94963.13;825551;71;32613;-78
2021/05/09 14:16:17;;;;;;;2.70;2.50;;;;;;;19.55;26.45;94968.78;819957;70;32753;-83
2021/05/09 14:31:08;;;;;;;2.65;2.45;;;;;;;19.71;27.23;94956.94;828314;71;29763;-75
2021/05/09 14:46:15;;;;;;;3.83;2.35;;;;;;;19.60;28.18;94958.45;828091;71;32697;-77
2021/05/09 15:01:52;;;;;;;2.90;2.70;;;;;;;19.77;29.46;94957.50;826243;71;32731;-76
2021/05/09 15:16:28;;;;;;;2.60;2.50;;;;;;;19.88;29.71;94943.93;827080;71;32680;-77
2021/05/09 15:31:13;;;;;;;2.77;2.58;;;;;;;19.84;29.87;94928.97;834783;71;32575;-78
2021/05/09 15:46:11;;;;;;;3.72;3.42;;;;;;;19.69;30.65;94909.87;828558;71;30269;-76
2021/05/09 16:01:11;;;;;;;3.30;3.10;;;;;;;19.49;31.70;94914.22;828628;71;29287;-78
2021/05/09 16:16:08;;;;;;;4.10;3.20;;;;;;;19.06;33.35;94918.20;834138;71;29354;-78
2021/05/09 16:31:15;;;;;;;3.98;3.40;;;;;;;19.01;35.90;94914.41;815391;70;32764;-74
2021/05/09 16:46:09;;;;;;;3.60;3.40;;;;;;;18.60;35.66;94926.70;828000;71;30110;-76
2021/05/09 17:01:10;;;;;;;4.85;3.90;;;;;;;18.60;36.55;94924.05;828042;71;30508;-78
2021/05/09 17:16:14;;;;;;;3.65;3.33;;;;;;;17.77;37.39;94936.24;824312;71;32712;-78
2021/05/09 17:31:09;;;;;;;4.40;3.95;;;;;;;17.24;38.56;94927.78;828252;71;30211;-78
2021/05/09 17:46:10;;;;;;;4.65;3.45;;;;;;;16.72;39.62;94938.52;816991;71;30354;-83
2021/05/09 18:01:19;;;;;;;3.90;3.60;;;;;;;16.31;39.68;94964.98;827601;71;32712;-83
2021/05/09 18:16:46;;;;;;;;;;;;;;;;;;;;;
2021/05/09 18:46:11;;;;;;;3.50;3.30;;;;;;;15.46;39.24;94988.55;835882;70;30360;-85
2021/05/09 19:01:29;;;;;;;3.80;3.60;;;;;;;15.31;39.27;94999.00;829376;70;32788;-82
2021/05/09 19:16:14;;;;;;;6.35;4.33;;;;;;;14.92;40.28;94999.20;822164;71;31413;-83
2021/05/09 19:31:15;;;;;;;7.62;5.08;;;;;;;14.43;41.76;95001.61;822383;71;32850;-83
2021/05/09 19:46:24;;;;;;;5.33;4.92;;;;;;;14.28;42.91;95015.72;787918;74;33485;-82
2021/05/09 20:01:19;;;;;;;5.15;4.65;;;;;;;14.32;43.85;95016.68;827711;71;32805;-79
2021/05/09 20:16:34;;;;;;;5.92;5.42;;;;;;;14.11;44.82;95032.16;829354;71;32648;-83
2021/05/09 20:32:00;;;;;;;5.67;5.17;;;;;;;13.98;45.63;95032.43;813001;72;32967;-84
2021/05/09 21:32:09;;;;;;;;;;;;;;;;;;;;;
